Portada
METAR-TAF:

METAR-TAF

Aeroports :

Kharg, Iran

latitud: 29-15-34N, longitud: 50-19-24E, altitud: 5 m

Observació

L'informe es va fer fa 28 minuts, a les 11:00 UTC
Vent 10 kt del Sud
Temperatura 30°C
Humitat 40%
Pressió 1008 hPa
Visibilitat 10 km o més
Núvols disperses a una alçada de 4000 ft
Cel cobert a una alçada de 9000 ft

METAR: OIBQ 091100Z 18010KT 9999 SCT040 OVC090 30/15 Q1008

Hora: 15:58 (11:28 UTC)


TAF: manca

Observacions i pronòstics meteorològics de més de 4000 aeroports (METAR i TAF).

Les estacions disponibles són els punts grocs i vermells al mapa.

Posi el ratolí al punt desitjat per veure el nom de l'estació.

Feu clic per veure les observacions i els pronòstics meteorològics.

Per canviar el mapa: feu clic els botons verds amb una creu de color negre per apropar; al botó verd amb un guió per allunyar la imatge; o en les fletxes verdes per a mapes adjacents.


METAR-TAF: